createdAt,value
2022-10-20T00:01:23.194Z,83.60
2022-10-20T00:03:52.240Z,84.80
2022-10-20T00:06:22.312Z,84.10
2022-10-20T00:08:51.580Z,83.70
2022-10-20T00:11:22.542Z,85.80
2022-10-20T00:13:54.524Z,84.10
2022-10-20T00:16:24.035Z,83.10
2022-10-20T00:18:53.310Z,82.30
2022-10-20T00:21:24.171Z,81.60
2022-10-20T00:23:53.202Z,80.60
2022-10-20T00:26:23.448Z,80.10
2022-10-20T00:28:54.264Z,80.00
2022-10-20T00:31:24.248Z,79.80
2022-10-20T00:33:53.047Z,79.80
2022-10-20T00:36:23.379Z,79.80
2022-10-20T00:38:52.646Z,80.00
2022-10-20T00:41:22.435Z,80.20
2022-10-20T00:43:54.122Z,80.80
2022-10-20T00:46:24.771Z,81.10
2022-10-20T00:48:57.980Z,81.40
2022-10-20T00:51:29.465Z,81.30
2022-10-20T00:54:04.543Z,81.70
2022-10-20T00:56:33.368Z,82.50
2022-10-20T00:59:04.733Z,86.00
2022-10-20T01:01:33.873Z,84.10
2022-10-20T01:04:03.081Z,83.20
2022-10-20T01:06:31.975Z,83.20
2022-10-20T01:09:00.822Z,82.30
2022-10-20T01:11:35.998Z,82.20
2022-10-20T01:14:16.223Z,82.30
2022-10-20T01:16:54.523Z,82.10
2022-10-20T01:19:48.998Z,81.70
2022-10-20T01:22:44.460Z,81.70
2022-10-20T01:25:20.288Z,80.40
2022-10-20T01:27:54.136Z,81.40
2022-10-20T01:30:25.013Z,81.40
2022-10-20T01:33:10.363Z,81.60
2022-10-20T01:35:51.122Z,81.40
2022-10-20T01:38:29.158Z,83.20
2022-10-20T01:41:02.889Z,82.90
2022-10-20T01:43:37.413Z,83.00
2022-10-20T01:46:07.052Z,82.50
2022-10-20T01:48:38.059Z,82.50
2022-10-20T01:51:06.650Z,82.30
2022-10-20T01:53:35.304Z,82.30
2022-10-20T01:56:04.700Z,82.10
2022-10-20T01:59:01.944Z,81.80
2022-10-20T02:01:43.965Z,81.60
2022-10-20T02:04:23.201Z,82.00
2022-10-20T02:06:58.534Z,81.30
2022-10-20T02:09:34.256Z,84.10
2022-10-20T02:12:06.629Z,83.10
2022-10-20T02:14:38.672Z,82.40
2022-10-20T02:17:12.343Z,81.90
2022-10-20T02:19:42.433Z,81.40
2022-10-20T02:22:12.787Z,81.40
2022-10-20T02:24:43.861Z,81.20
2022-10-20T02:27:16.369Z,81.00
2022-10-20T02:29:51.534Z,80.80
2022-10-20T02:32:21.167Z,80.80
2022-10-20T02:34:49.694Z,82.00
2022-10-20T02:37:18.645Z,80.70
2022-10-20T02:39:47.043Z,83.10
2022-10-20T02:42:17.263Z,82.60
2022-10-20T02:44:47.323Z,81.80
2022-10-20T02:47:15.734Z,81.30
2022-10-20T02:49:44.085Z,80.80
2022-10-20T02:52:12.489Z,80.50
2022-10-20T02:54:41.360Z,80.30
2022-10-20T02:57:09.878Z,80.10
2022-10-20T02:59:38.395Z,79.90
2022-10-20T03:02:08.417Z,80.00
2022-10-20T03:04:36.928Z,81.00
2022-10-20T03:07:05.624Z,80.50
2022-10-20T03:09:33.975Z,80.00
2022-10-20T03:12:02.151Z,79.90
2022-10-20T03:14:30.946Z,79.40
2022-10-20T03:16:59.341Z,81.20
2022-10-20T03:19:29.051Z,80.80
2022-10-20T03:21:57.556Z,80.40
2022-10-20T03:24:25.906Z,80.10
2022-10-20T03:26:54.409Z,80.10
2022-10-20T03:29:22.790Z,80.20
2022-10-20T03:31:51.293Z,80.30
2022-10-20T03:34:19.747Z,80.30
2022-10-20T03:36:49.638Z,80.50
2022-10-20T03:39:17.938Z,80.80
2022-10-20T03:41:46.472Z,80.70
2022-10-20T03:44:15.196Z,80.70
2022-10-20T03:46:43.601Z,80.60
2022-10-20T03:49:12.011Z,80.70
2022-10-20T03:51:40.395Z,80.20
2022-10-20T03:54:10.286Z,80.10
2022-10-20T03:56:38.594Z,80.80
2022-10-20T03:59:06.849Z,81.00
2022-10-20T04:01:36.816Z,81.10
2022-10-20T04:04:05.399Z,81.00
2022-10-20T04:06:34.045Z,81.20
2022-10-20T04:09:02.459Z,81.50
2022-10-20T04:11:32.618Z,81.40
2022-10-20T04:14:01.240Z,81.20
2022-10-20T04:16:29.752Z,81.70
2022-10-20T04:18:58.177Z,81.70
2022-10-20T04:21:26.821Z,81.70
2022-10-20T04:23:55.029Z,81.70
2022-10-20T04:26:23.247Z,81.80
2022-10-20T04:28:53.096Z,83.10
2022-10-20T04:31:21.240Z,83.60
2022-10-20T04:33:49.380Z,83.30
2022-10-20T04:36:17.773Z,85.50
2022-10-20T04:38:45.906Z,88.20
2022-10-20T04:41:14.527Z,91.80
2022-10-20T04:43:42.833Z,92.90
2022-10-20T04:46:12.903Z,93.60
2022-10-20T04:48:43.788Z,93.60
2022-10-20T04:51:14.003Z,90.70
2022-10-20T04:53:42.279Z,90.70
2022-10-20T04:56:13.811Z,91.80
2022-10-20T04:58:42.065Z,91.50
2022-10-20T05:01:12.510Z,92.30
2022-10-20T05:03:40.709Z,89.60
2022-10-20T05:06:10.728Z,90.50
2022-10-20T05:08:39.029Z,89.70
2022-10-20T05:11:07.400Z,87.10
2022-10-20T05:13:35.892Z,86.20
2022-10-20T05:16:04.546Z,85.30
2022-10-20T05:18:34.671Z,84.50
2022-10-20T05:21:09.284Z,84.00
2022-10-20T05:23:37.834Z,83.40
2022-10-20T05:26:07.082Z,83.60
2022-10-20T05:28:35.335Z,85.60
2022-10-20T05:31:03.999Z,84.70
2022-10-20T05:33:33.851Z,84.60
2022-10-20T05:36:01.984Z,85.30
2022-10-20T05:38:30.211Z,85.40
2022-10-20T05:41:06.910Z,85.50
2022-10-20T05:43:35.212Z,85.10
2022-10-20T05:46:03.382Z,84.80
2022-10-20T05:48:33.677Z,85.50
2022-10-20T05:51:13.574Z,85.80
2022-10-20T05:53:43.873Z,85.90
2022-10-20T05:56:14.503Z,85.90
2022-10-20T05:58:43.111Z,85.60
2022-10-20T06:01:17.093Z,85.30
2022-10-20T06:03:49.262Z,86.10
2022-10-20T06:06:17.495Z,85.20
2022-10-20T06:08:45.924Z,86.30
2022-10-20T06:11:15.190Z,90.10
2022-10-20T06:13:45.084Z,94.70
2022-10-20T06:16:17.571Z,94.90
2022-10-20T06:18:47.227Z,92.30
2022-10-20T06:21:17.506Z,90.30
2022-10-20T06:23:45.862Z,89.30
2022-10-20T06:26:17.790Z,87.70
2022-10-20T06:28:47.301Z,86.90
2022-10-20T06:31:17.792Z,86.00
2022-10-20T06:33:48.156Z,85.30
2022-10-20T06:36:17.282Z,84.90
2022-10-20T06:38:46.235Z,84.80
2022-10-20T06:41:16.569Z,84.80
2022-10-20T06:43:45.451Z,84.70
2022-10-20T06:46:15.895Z,85.00
2022-10-20T06:48:44.681Z,84.60
2022-10-20T06:51:16.272Z,84.60
2022-10-20T06:53:46.711Z,84.50
2022-10-20T06:56:17.042Z,86.50
2022-10-20T06:58:46.875Z,87.40
2022-10-20T07:01:16.618Z,86.50
2022-10-20T07:03:46.131Z,89.00
2022-10-20T07:06:17.300Z,88.50
2022-10-20T07:08:45.520Z,89.60
2022-10-20T07:11:15.698Z,92.00
2022-10-20T07:13:44.435Z,94.50
2022-10-20T07:16:14.961Z,97.00
2022-10-20T07:21:16.902Z,99.10
2022-10-20T07:23:45.407Z,99.40
2022-10-20T07:26:16.194Z,99.20
2022-10-20T07:28:46.278Z,97.30
2022-10-20T07:31:17.653Z,96.60
2022-10-20T07:33:56.536Z,93.60
2022-10-20T07:36:36.445Z,92.00
2022-10-20T07:39:06.913Z,92.80
2022-10-20T07:41:35.725Z,94.90
2022-10-20T07:44:04.687Z,94.50
2022-10-20T07:46:32.830Z,96.10
2022-10-20T07:49:23.931Z,97.60
2022-10-20T07:51:50.373Z,98.80
2022-10-20T07:54:18.499Z,98.00
2022-10-20T07:56:46.766Z,98.30
2022-10-20T07:59:15.189Z,98.00
2022-10-20T08:01:44.011Z,98.30
2022-10-20T08:04:12.859Z,97.00
2022-10-20T08:06:41.368Z,95.80
2022-10-20T08:09:11.364Z,96.10
2022-10-20T08:11:39.850Z,95.60
2022-10-20T08:14:08.011Z,94.60
2022-10-20T08:16:38.888Z,94.20
2022-10-20T08:21:49.417Z,95.50
2022-10-20T08:24:19.190Z,95.20
2022-10-20T08:26:47.421Z,95.40
2022-10-20T08:29:15.892Z,95.10
2022-10-20T08:31:45.111Z,96.20
2022-10-20T08:34:13.383Z,95.60
2022-10-20T08:36:41.575Z,94.50
2022-10-20T08:39:09.776Z,94.60
2022-10-20T08:42:09.920Z,97.50
2022-10-20T08:44:34.479Z,98.90
2022-10-20T08:47:05.183Z,99.40
2022-10-20T08:49:36.123Z,99.90
2022-10-20T08:52:04.842Z,99.90
2022-10-20T08:54:35.538Z,99.90
2022-10-20T08:57:15.677Z,99.90
2022-10-20T08:59:44.323Z,99.90
2022-10-20T09:02:18.050Z,99.90
2022-10-20T09:04:51.184Z,99.90
2022-10-20T09:07:25.958Z,99.90
2022-10-20T09:09:56.488Z,99.90
2022-10-20T09:12:30.963Z,99.90
2022-10-20T09:14:59.596Z,99.90
2022-10-20T09:17:27.940Z,99.90
2022-10-20T09:20:00.219Z,99.90
2022-10-20T09:22:34.900Z,99.90
2022-10-20T09:25:05.533Z,99.60
2022-10-20T09:27:40.010Z,99.90
2022-10-20T09:30:17.611Z,99.90
2022-10-20T09:32:47.555Z,99.90
2022-10-20T09:35:27.908Z,99.90
2022-10-20T09:38:03.736Z,99.90
2022-10-20T09:40:32.546Z,99.90
2022-10-20T09:43:08.507Z,99.90
2022-10-20T09:45:38.992Z,99.60
2022-10-20T09:48:22.709Z,99.40
2022-10-20T09:50:55.118Z,99.40
2022-10-20T09:53:28.614Z,99.10
2022-10-20T09:55:57.504Z,98.80
2022-10-20T09:58:30.134Z,99.70
2022-10-20T10:01:01.306Z,99.80
2022-10-20T10:03:29.710Z,99.90
2022-10-20T10:05:59.563Z,99.90
2022-10-20T10:08:29.982Z,99.90
2022-10-20T10:11:04.268Z,99.90
2022-10-20T10:13:40.038Z,99.90
2022-10-20T10:16:10.921Z,99.90
2022-10-20T10:18:40.063Z,99.90
2022-10-20T10:21:10.594Z,99.90
2022-10-20T10:23:52.475Z,99.90
2022-10-20T10:26:52.960Z,99.90
2022-10-20T10:29:29.451Z,99.90
2022-10-20T10:32:00.294Z,99.60
2022-10-20T10:34:45.268Z,99.70
2022-10-20T10:37:15.990Z,99.50
2022-10-20T10:39:45.335Z,99.00
2022-10-20T10:42:48.947Z,99.40
2022-10-20T10:45:43.654Z,99.30
2022-10-20T10:48:42.419Z,97.70
2022-10-20T10:51:17.849Z,96.40
2022-10-20T10:53:57.835Z,95.50
2022-10-20T10:56:34.669Z,94.90
2022-10-20T10:59:15.711Z,95.20
2022-10-20T11:02:06.730Z,97.30
2022-10-20T11:04:58.680Z,98.50
2022-10-20T11:07:35.755Z,98.80
2022-10-20T11:10:12.200Z,99.30
2022-10-20T11:13:07.929Z,99.20
2022-10-20T11:15:51.764Z,98.60
2022-10-20T11:18:38.632Z,99.00
2022-10-20T11:21:19.333Z,98.90
2022-10-20T11:24:03.390Z,99.10
2022-10-20T11:26:35.003Z,99.00
2022-10-20T11:29:07.419Z,98.60
2022-10-20T11:31:40.975Z,98.80
2022-10-20T11:34:16.912Z,98.50
2022-10-20T11:36:48.585Z,98.70
2022-10-20T11:39:26.024Z,98.90
2022-10-20T11:42:00.849Z,98.80
2022-10-20T11:44:33.432Z,98.60
2022-10-20T11:47:07.208Z,98.90
2022-10-20T11:49:41.278Z,99.20
2022-10-20T11:52:38.992Z,98.90
2022-10-20T11:55:29.469Z,99.40
2022-10-20T11:58:17.104Z,98.40
2022-10-20T12:00:59.909Z,99.20
2022-10-20T12:03:54.687Z,99.40
2022-10-20T12:07:01.575Z,98.90
2022-10-20T12:09:59.239Z,98.90
2022-10-20T12:12:34.789Z,97.60
2022-10-20T12:27:43.992Z,97.80
2022-10-20T12:30:45.527Z,96.70
2022-10-20T12:33:19.406Z,96.30
2022-10-20T12:36:34.557Z,97.10
2022-10-20T12:39:31.424Z,97.00
2022-10-20T12:42:05.213Z,97.10
2022-10-20T12:44:46.725Z,96.60
2022-10-20T12:47:25.306Z,96.20
2022-10-20T12:49:58.101Z,95.50
2022-10-20T12:52:49.220Z,95.60
2022-10-20T12:55:22.178Z,94.70
2022-10-20T12:57:51.933Z,94.60
2022-10-20T13:00:58.652Z,94.10
2022-10-20T13:03:55.315Z,94.40
2022-10-20T13:06:44.350Z,94.90
2022-10-20T13:09:21.255Z,95.90
2022-10-20T13:12:01.939Z,96.00
2022-10-20T13:14:42.872Z,95.80
2022-10-20T13:17:30.694Z,95.50
2022-10-20T13:20:05.909Z,96.30
2022-10-20T13:22:39.324Z,96.10
2022-10-20T13:25:27.559Z,96.80
2022-10-20T13:28:05.846Z,96.80
2022-10-20T13:30:38.145Z,96.10
2022-10-20T13:33:34.001Z,96.70
2022-10-20T13:36:15.707Z,96.80
2022-10-20T13:38:54.667Z,97.00
2022-10-20T13:41:33.236Z,97.30
2022-10-20T13:44:11.762Z,97.30
2022-10-20T13:46:52.146Z,98.00
2022-10-20T13:49:36.823Z,98.10
2022-10-20T13:52:14.852Z,98.00
2022-10-20T13:54:47.304Z,98.20
2022-10-20T13:57:30.859Z,97.70
2022-10-20T14:00:01.777Z,97.60
2022-10-20T14:02:32.622Z,97.50
2022-10-20T14:07:51.888Z,96.90
2022-10-20T14:10:34.011Z,96.40
2022-10-20T14:13:04.077Z,95.90
2022-10-20T14:15:38.198Z,96.20
2022-10-20T14:18:22.847Z,95.10
2022-10-20T14:21:02.579Z,95.10
2022-10-20T14:23:36.158Z,94.50
2022-10-20T14:26:05.814Z,94.00
2022-10-20T14:28:36.564Z,94.00
2022-10-20T14:31:05.374Z,93.80
2022-10-20T14:33:37.710Z,94.70
2022-10-20T14:36:07.355Z,94.90
2022-10-20T14:38:42.283Z,93.30
2022-10-20T14:41:10.807Z,95.10
2022-10-20T14:43:41.697Z,96.00
2022-10-20T14:46:12.739Z,96.30
2022-10-20T14:48:45.436Z,95.70
2022-10-20T14:51:31.011Z,94.20
2022-10-20T14:57:03.512Z,94.20
2022-10-20T14:59:33.731Z,93.90
2022-10-20T15:02:09.090Z,94.30
2022-10-20T15:04:38.334Z,94.80
2022-10-20T15:07:12.031Z,94.80
2022-10-20T15:09:44.574Z,96.40
2022-10-20T15:12:18.605Z,95.80
2022-10-20T15:14:49.923Z,95.70
2022-10-20T15:17:36.587Z,97.00
2022-10-20T15:20:31.981Z,97.60
2022-10-20T15:23:02.045Z,98.50
2022-10-20T15:25:34.160Z,99.90
2022-10-20T15:28:02.349Z,99.60
2022-10-20T15:30:31.483Z,99.70
2022-10-20T15:32:59.695Z,99.80
2022-10-20T15:35:31.007Z,99.30
2022-10-20T15:37:59.157Z,99.50
2022-10-20T15:40:27.262Z,99.60
2022-10-20T15:42:56.974Z,98.40
2022-10-20T15:45:26.543Z,97.10
2022-10-20T15:47:54.722Z,96.40
2022-10-20T15:50:58.365Z,95.40
2022-10-20T15:53:30.122Z,94.80
2022-10-20T15:56:03.034Z,94.00
2022-10-20T15:58:37.365Z,93.90
2022-10-20T16:01:18.713Z,93.70
2022-10-20T16:03:48.995Z,93.50
2022-10-20T16:06:24.766Z,93.70
2022-10-20T16:08:56.823Z,94.10
2022-10-20T16:14:41.190Z,98.40
2022-10-20T16:17:09.683Z,99.90
2022-10-20T16:19:38.056Z,98.30
2022-10-20T16:22:06.396Z,97.80
2022-10-20T16:24:34.914Z,96.90
2022-10-20T16:27:05.757Z,98.70
2022-10-20T16:29:34.182Z,98.40
2022-10-20T16:32:04.445Z,99.90
2022-10-20T16:34:33.008Z,99.90
2022-10-20T16:37:01.332Z,99.90
2022-10-20T16:39:30.146Z,99.90
2022-10-20T16:42:01.855Z,99.90
2022-10-20T16:44:31.919Z,99.40
2022-10-20T16:47:02.364Z,97.40
2022-10-20T16:49:32.541Z,96.10
2022-10-20T16:52:01.982Z,95.40
2022-10-20T16:54:30.503Z,99.70
2022-10-20T16:57:11.118Z,99.50
2022-10-20T16:59:43.399Z,99.90
2022-10-20T17:02:14.079Z,99.20
2022-10-20T17:04:44.877Z,97.70
2022-10-20T17:07:16.668Z,96.60
2022-10-20T17:09:45.843Z,95.70
2022-10-20T17:12:14.605Z,94.80
2022-10-20T17:14:43.291Z,94.50
2022-10-20T17:17:14.615Z,94.50
2022-10-20T17:19:45.168Z,95.50
2022-10-20T17:22:13.565Z,95.10
2022-10-20T17:24:41.839Z,95.20
2022-10-20T17:27:10.642Z,96.40
2022-10-20T17:30:36.099Z,96.20
2022-10-20T17:33:08.935Z,95.50
2022-10-20T17:35:55.418Z,95.40
2022-10-20T17:38:49.854Z,95.40
2022-10-20T17:41:25.811Z,95.70
2022-10-20T17:43:56.333Z,95.40
2022-10-20T17:46:24.627Z,95.20
2022-10-20T17:48:52.835Z,95.30
2022-10-20T17:51:24.293Z,95.10
2022-10-20T17:53:54.546Z,96.20
2022-10-20T17:56:27.130Z,96.90
2022-10-20T17:58:56.654Z,96.30
2022-10-20T18:01:27.227Z,96.00
2022-10-20T18:03:57.167Z,97.60
2022-10-20T18:06:33.576Z,99.80
2022-10-20T18:09:06.381Z,99.90
2022-10-20T18:11:36.279Z,99.50
2022-10-20T18:14:05.660Z,98.00
2022-10-20T18:16:36.949Z,96.90
2022-10-20T18:19:05.663Z,98.20
2022-10-20T18:21:35.963Z,99.90
2022-10-20T18:24:07.874Z,99.90
2022-10-20T18:26:38.299Z,99.90
2022-10-20T18:29:10.019Z,99.90
2022-10-20T18:31:40.301Z,99.90
2022-10-20T18:34:11.923Z,99.90
2022-10-20T18:36:45.138Z,99.90
2022-10-20T18:39:15.454Z,98.30
2022-10-20T18:41:47.762Z,99.50
2022-10-20T18:44:18.575Z,99.90
2022-10-20T18:46:47.816Z,99.90
2022-10-20T18:49:21.659Z,98.50
2022-10-20T18:51:52.276Z,99.70
2022-10-20T18:54:24.089Z,98.30
2022-10-20T18:56:52.578Z,97.30
2022-10-20T18:59:21.070Z,99.90
2022-10-20T19:01:51.711Z,99.50
2022-10-20T19:04:34.069Z,98.60
2022-10-20T19:07:04.117Z,97.50
2022-10-20T19:09:32.581Z,98.30
2022-10-20T19:12:02.080Z,99.10
2022-10-20T19:14:31.926Z,97.70
2022-10-20T19:17:04.381Z,97.10
2022-10-20T19:20:02.420Z,96.10
2022-10-20T19:22:59.969Z,95.80
2022-10-20T19:25:32.688Z,95.90
2022-10-20T19:28:03.390Z,95.50
2022-10-20T19:30:39.014Z,94.80
2022-10-20T19:33:09.461Z,94.20
2022-10-20T19:35:38.187Z,93.60
2022-10-20T19:38:09.405Z,93.80
2022-10-20T19:40:39.629Z,96.80
2022-10-20T19:43:08.317Z,95.50
2022-10-20T19:45:38.049Z,94.90
2022-10-20T19:48:22.767Z,94.20
2022-10-20T19:51:32.129Z,93.90
2022-10-20T20:06:38.215Z,99.90
2022-10-20T20:13:37.635Z,99.90
2022-10-20T20:16:13.433Z,99.90
2022-10-20T20:18:47.835Z,99.90
2022-10-20T20:21:19.607Z,99.90
2022-10-20T20:24:15.331Z,99.90
2022-10-20T20:27:13.918Z,99.90
2022-10-20T20:29:43.478Z,99.90
2022-10-20T20:34:01.753Z,99.90
2022-10-20T20:37:01.782Z,99.90
2022-10-20T20:39:35.879Z,99.90
2022-10-20T20:42:19.993Z,99.90
2022-10-20T20:44:53.059Z,99.90
2022-10-20T20:47:55.121Z,99.90
2022-10-20T20:50:38.556Z,99.90
2022-10-20T20:56:35.428Z,99.90
2022-10-20T20:59:05.299Z,99.90
2022-10-20T21:02:04.965Z,99.90
2022-10-20T21:05:05.588Z,99.90
2022-10-20T21:07:34.105Z,99.80
2022-10-20T21:10:04.190Z,98.60
2022-10-20T21:12:36.336Z,98.00
2022-10-20T21:15:14.318Z,97.50
2022-10-20T21:17:50.439Z,96.80
2022-10-20T21:20:44.587Z,96.40
2022-10-20T21:23:28.920Z,96.10
2022-10-20T21:26:10.788Z,95.80
2022-10-20T21:28:42.061Z,95.50
2022-10-20T21:31:41.983Z,95.90
2022-10-20T21:34:12.063Z,95.70
2022-10-20T21:36:40.968Z,96.90
2022-10-20T21:39:16.967Z,99.90
2022-10-20T21:41:50.975Z,98.60
2022-10-20T21:44:19.530Z,97.30
2022-10-20T21:46:51.009Z,96.10
2022-10-20T21:50:24.080Z,95.60
2022-10-20T21:53:00.129Z,95.70
2022-10-20T21:55:31.683Z,94.80
2022-10-20T21:58:01.575Z,94.30
2022-10-20T22:00:32.373Z,94.40
2022-10-20T22:03:03.746Z,94.00
2022-10-20T22:06:08.587Z,94.20
2022-10-20T22:08:38.156Z,94.40
2022-10-20T22:11:15.575Z,94.70
2022-10-20T22:13:48.532Z,95.10
2022-10-20T22:16:57.794Z,95.50
2022-10-20T22:20:00.952Z,95.50
2022-10-20T22:22:43.459Z,95.70
2022-10-20T22:25:19.389Z,97.50
2022-10-20T22:31:32.815Z,99.90
2022-10-20T22:38:24.827Z,99.90
2022-10-20T22:44:48.188Z,99.90
2022-10-20T22:47:27.918Z,99.90
2022-10-20T22:50:40.260Z,99.90
2022-10-20T22:53:23.097Z,99.90
2022-10-20T22:55:58.350Z,99.90
2022-10-20T22:58:49.664Z,99.90
2022-10-20T23:01:43.551Z,99.90
2022-10-20T23:04:25.041Z,99.90
2022-10-20T23:07:04.990Z,99.90
2022-10-20T23:12:44.079Z,99.90
2022-10-20T23:15:44.164Z,99.90
2022-10-20T23:18:14.790Z,99.90
2022-10-20T23:20:51.953Z,99.90
2022-10-20T23:23:57.898Z,99.90
2022-10-20T23:26:48.513Z,99.90
2022-10-20T23:29:52.511Z,99.50
2022-10-20T23:32:50.302Z,99.10
2022-10-20T23:35:56.186Z,98.90
2022-10-20T23:39:02.176Z,98.70
2022-10-20T23:42:07.192Z,98.10
2022-10-20T23:44:41.068Z,99.30
2022-10-20T23:48:14.691Z,99.30
2022-10-20T23:51:14.883Z,97.60
2022-10-20T23:54:28.260Z,96.20
2022-10-20T23:57:27.972Z,95.60
